Time;durP1;ratioP1;P1;durP2;ratioP2;P2;SDS_P1;SDS_P2;PMS_P1;PMS_P2;Temp;Humidity;BMP_temperature;BMP_pressure;BME280_temperature;BME280_humidity;BME280_pressure;Samples;Min_cycle;Max_cycle;Signal;HPM_P1;HPM_P2
2023/05/15 00:00:00;;;;;;;0.93;0.93;;;;;10.10;95620.00;;;;5053347;28;20196;-55
2023/05/15 00:02:29;;;;;;;1.30;1.20;;;;;9.90;95613.00;;;;5053384;28;20279;-55
2023/05/15 00:04:56;;;;;;;0.50;0.50;;;;;9.80;95613.00;;;;5053269;28;20242;-55
2023/05/15 00:07:24;;;;;;;1.27;1.17;;;;;9.80;95611.00;;;;5053215;28;20196;-55
2023/05/15 00:09:51;;;;;;;0.93;0.90;;;;;9.80;95604.00;;;;5053286;28;20218;-55
2023/05/15 00:12:19;;;;;;;1.07;1.07;;;;;9.70;95600.00;;;;5053108;28;20299;-55
2023/05/15 00:14:46;;;;;;;0.80;0.80;;;;;9.80;95610.00;;;;5053038;28;20212;-55
2023/05/15 00:17:13;;;;;;;1.70;1.13;;;;;9.80;95602.00;;;;5053076;28;20192;-54
2023/05/15 00:19:42;;;;;;;0.70;0.70;;;;;9.80;95597.00;;;;5051890;28;20246;-54
2023/05/15 00:22:10;;;;;;;1.80;1.10;;;;;9.90;95603.00;;;;5053069;28;20192;-54
2023/05/15 00:24:37;;;;;;;1.00;1.00;;;;;9.90;95598.00;;;;5053270;28;20223;-54
2023/05/15 00:27:05;;;;;;;0.87;0.87;;;;;9.90;95598.00;;;;5053576;28;20199;-54
2023/05/15 00:29:32;;;;;;;0.90;0.90;;;;;9.90;95600.00;;;;5053344;28;20242;-54
2023/05/15 00:32:00;;;;;;;1.40;1.30;;;;;9.90;95585.00;;;;5052905;28;20220;-54
2023/05/15 00:34:27;;;;;;;0.87;0.87;;;;;9.90;95589.00;;;;5053256;28;20760;-54
2023/05/15 00:36:56;;;;;;;0.80;0.80;;;;;9.80;95588.00;;;;5053239;28;20204;-55
2023/05/15 00:39:23;;;;;;;1.27;1.10;;;;;9.80;95583.00;;;;5053533;28;20216;-55
2023/05/15 00:41:53;;;;;;;0.90;0.90;;;;;9.90;95577.00;;;;5052974;28;20192;-54
2023/05/15 00:44:20;;;;;;;0.90;0.90;;;;;9.90;95585.00;;;;5053202;28;20216;-55
2023/05/15 00:46:50;;;;;;;0.93;0.93;;;;;9.80;95575.00;;;;5052939;28;20196;-55
2023/05/15 00:49:21;;;;;;;0.80;0.80;;;;;9.70;95581.00;;;;5052846;28;20203;-55
2023/05/15 00:51:49;;;;;;;1.23;1.13;;;;;9.60;95578.00;;;;5052860;28;20249;-55
2023/05/15 00:54:18;;;;;;;0.97;0.97;;;;;9.70;95570.00;;;;5055188;28;20265;-55
2023/05/15 00:56:47;;;;;;;0.83;0.83;;;;;9.70;95583.00;;;;5057348;28;20188;-55
2023/05/15 00:59:15;;;;;;;0.90;0.90;;;;;9.80;95587.00;;;;5056966;28;20567;-54
2023/05/15 01:01:44;;;;;;;1.50;1.13;;;;;9.80;95580.00;;;;5056749;28;20192;-55
2023/05/15 01:04:11;;;;;;;0.93;0.93;;;;;9.70;95580.00;;;;5056652;28;20234;-55
2023/05/15 01:06:39;;;;;;;1.40;1.30;;;;;9.80;95575.00;;;;5056879;28;20293;-55
2023/05/15 01:09:07;;;;;;;1.30;1.20;;;;;9.70;95584.00;;;;5056560;28;20204;-54
2023/05/15 01:11:39;;;;;;;1.20;1.20;;;;;9.60;95592.00;;;;5056449;28;20291;-54
2023/05/15 01:14:07;;;;;;;1.00;1.00;;;;;9.50;95593.00;;;;5056684;28;20220;-55
2023/05/15 01:16:36;;;;;;;1.10;1.10;;;;;9.50;95590.00;;;;5056699;28;20207;-54
2023/05/15 01:19:03;;;;;;;1.53;1.00;;;;;9.50;95586.00;;;;5056342;28;20203;-54
2023/05/15 01:22:24;;;;;;;1.07;1.03;;;;;9.50;95591.00;;;;5056403;28;20196;-55
2023/05/15 01:25:20;;;;;;;0.80;0.80;;;;;9.60;95590.00;;;;5014479;28;20244;-55
2023/05/15 01:27:52;;;;;;;0.70;0.70;;;;;9.50;95586.00;;;;5014559;28;20205;-55
2023/05/15 01:30:25;;;;;;;0.60;0.60;;;;;9.50;95582.00;;;;5042600;28;20541;-55
2023/05/15 01:32:58;;;;;;;1.17;1.10;;;;;9.60;95593.00;;;;5056579;28;20249;-54
2023/05/15 01:35:33;;;;;;;0.73;0.73;;;;;9.40;95593.00;;;;5056108;28;20223;-55
2023/05/15 01:38:18;;;;;;;0.73;0.73;;;;;9.40;95597.00;;;;5056354;28;20183;-55
2023/05/15 01:40:47;;;;;;;1.23;1.23;;;;;9.40;95587.00;;;;5056588;28;20181;-55
2023/05/15 01:43:24;;;;;;;0.67;0.67;;;;;9.30;95593.00;;;;5055895;28;20192;-55
2023/05/15 01:45:51;;;;;;;1.23;0.90;;;;;9.30;95588.00;;;;5056068;28;20195;-55
2023/05/15 01:48:21;;;;;;;1.27;1.23;;;;;9.40;95589.00;;;;5055831;28;20196;-55
2023/05/15 01:50:51;;;;;;;0.50;0.50;;;;;9.40;95592.00;;;;5056062;28;20211;-55
2023/05/15 01:53:20;;;;;;;0.80;0.80;;;;;9.40;95586.00;;;;5054386;28;20706;-55
2023/05/15 01:55:48;;;;;;;0.80;0.80;;;;;9.40;95581.00;;;;5055684;28;20246;-55
2023/05/15 01:58:18;;;;;;;0.80;0.80;;;;;9.50;95587.00;;;;5056292;28;20254;-55
2023/05/15 02:00:47;;;;;;;0.87;0.87;;;;;9.40;95584.00;;;;5056174;28;20562;-55
2023/05/15 02:03:15;;;;;;;1.17;1.10;;;;;9.40;95582.00;;;;5055704;28;20275;-55
2023/05/15 02:05:44;;;;;;;0.63;0.63;;;;;9.50;95585.00;;;;5068782;22;20665;-55
2023/05/15 02:08:12;;;;;;;1.47;1.40;;;;;9.50;95579.00;;;;5037676;28;20231;-56
2023/05/15 02:10:40;;;;;;;0.60;0.60;;;;;9.60;95583.00;;;;5056377;28;20204;-56
2023/05/15 02:13:10;;;;;;;1.33;1.23;;;;;9.60;95572.00;;;;5055415;28;20686;-56
2023/05/15 02:15:39;;;;;;;1.23;1.23;;;;;9.50;95580.00;;;;5055310;28;20219;-56
2023/05/15 02:18:07;;;;;;;1.27;1.27;;;;;9.60;95584.00;;;;5055674;28;20196;-56
2023/05/15 02:20:34;;;;;;;0.70;0.70;;;;;9.60;95580.00;;;;5055640;28;20250;-56
2023/05/15 02:23:02;;;;;;;1.57;1.47;;;;;9.60;95591.00;;;;5055505;28;20288;-56
2023/05/15 02:25:37;;;;;;;0.70;0.70;;;;;9.60;95584.00;;;;5037228;28;20718;-56
2023/05/15 02:28:07;;;;;;;0.90;0.90;;;;;9.60;95578.00;;;;5055541;28;20184;-56
2023/05/15 02:30:43;;;;;;;1.37;1.30;;;;;9.60;95571.00;;;;5056035;28;20202;-56
2023/05/15 02:33:20;;;;;;;1.20;1.20;;;;;9.70;95584.00;;;;5055317;28;20601;-56
2023/05/15 02:35:52;;;;;;;0.67;0.67;;;;;9.70;95575.00;;;;5055017;28;20219;-55
2023/05/15 02:38:26;;;;;;;0.80;0.80;;;;;9.70;95574.00;;;;5055138;28;20184;-55
2023/05/15 02:40:56;;;;;;;1.00;1.00;;;;;9.70;95578.00;;;;5055033;28;20188;-56
2023/05/15 02:43:26;;;;;;;1.37;1.27;;;;;9.80;95573.00;;;;5054941;28;20196;-56
2023/05/15 02:45:56;;;;;;;1.87;1.73;;;;;9.90;95568.00;;;;5054741;28;20275;-56
2023/05/15 02:48:24;;;;;;;1.40;1.30;;;;;9.90;95568.00;;;;5054841;28;20192;-56
2023/05/15 02:50:53;;;;;;;1.53;0.90;;;;;9.90;95561.00;;;;5054870;28;20196;-56
2023/05/15 02:53:20;;;;;;;1.10;1.10;;;;;9.90;95572.00;;;;5054866;28;20234;-56
2023/05/15 02:55:48;;;;;;;0.60;0.60;;;;;9.90;95567.00;;;;5054948;28;20780;-55
2023/05/15 02:58:15;;;;;;;0.97;0.97;;;;;10.00;95573.00;;;;5054914;28;20192;-56
2023/05/15 03:00:43;;;;;;;0.90;0.90;;;;;9.90;95569.00;;;;5054792;28;20222;-56
2023/05/15 03:03:12;;;;;;;1.57;1.50;;;;;9.80;95574.00;;;;5054523;28;20253;-56
2023/05/15 03:05:39;;;;;;;2.47;1.10;;;;;9.80;95575.00;;;;5054299;28;20224;-56
2023/05/15 03:08:07;;;;;;;1.03;1.03;;;;;9.80;95576.00;;;;5054693;28;20188;-56
2023/05/15 03:10:34;;;;;;;0.67;0.67;;;;;9.90;95575.00;;;;5054337;28;20196;-60
2023/05/15 03:13:02;;;;;;;1.37;1.30;;;;;9.80;95572.00;;;;5054205;28;20266;-56
2023/05/15 03:15:29;;;;;;;0.80;0.80;;;;;9.80;95572.00;;;;5054504;28;20212;-56
2023/05/15 03:17:57;;;;;;;4.33;1.77;;;;;9.70;95569.00;;;;5054912;28;20724;-56
2023/05/15 03:20:26;;;;;;;0.90;0.90;;;;;9.60;95574.00;;;;5054963;28;20192;-56
2023/05/15 03:22:53;;;;;;;1.40;1.30;;;;;9.70;95562.00;;;;5054237;28;20215;-56
2023/05/15 03:25:21;;;;;;;0.77;0.73;;;;;9.70;95564.00;;;;5054515;28;20223;-56
2023/05/15 03:27:49;;;;;;;1.33;1.30;;;;;9.70;95566.00;;;;5055107;28;20200;-56
2023/05/15 03:30:16;;;;;;;0.60;0.60;;;;;9.60;95566.00;;;;5054318;28;20196;-56
2023/05/15 03:32:44;;;;;;;1.27;1.20;;;;;9.70;95562.00;;;;5053825;28;20220;-56
2023/05/15 03:35:11;;;;;;;3.43;2.00;;;;;9.70;95564.00;;;;5054060;28;20216;-56
2023/05/15 03:37:40;;;;;;;0.67;0.67;;;;;9.60;95562.00;;;;5053901;28;20250;-56
2023/05/15 03:40:08;;;;;;;0.80;0.80;;;;;9.60;95558.00;;;;5053849;28;20203;-56
2023/05/15 03:42:36;;;;;;;0.90;0.90;;;;;9.60;95564.00;;;;5035994;28;20203;-56
2023/05/15 03:45:04;;;;;;;1.13;1.13;;;;;9.60;95571.00;;;;5053605;28;20252;-56
2023/05/15 03:47:31;;;;;;;0.90;0.90;;;;;9.60;95562.00;;;;5054097;28;20219;-56
2023/05/15 03:49:59;;;;;;;0.60;0.60;;;;;9.60;95559.00;;;;5053666;28;20203;-56
2023/05/15 03:52:26;;;;;;;0.83;0.83;;;;;9.70;95570.00;;;;5053836;28;20192;-56
2023/05/15 03:54:55;;;;;;;1.10;1.10;;;;;9.70;95562.00;;;;5053539;28;20220;-56
2023/05/15 03:57:22;;;;;;;1.20;1.17;;;;;9.80;95562.00;;;;5054079;28;20192;-56
2023/05/15 03:59:50;;;;;;;0.87;0.87;;;;;9.80;95563.00;;;;5053566;28;20196;-56
2023/05/15 04:02:17;;;;;;;0.70;0.70;;;;;9.90;95560.00;;;;5053684;28;20200;-56
2023/05/15 04:04:44;;;;;;;0.90;0.90;;;;;9.90;95563.00;;;;5035387;28;20230;-56
2023/05/15 04:07:14;;;;;;;0.93;0.93;;;;;9.90;95567.00;;;;5053809;28;20188;-56
2023/05/15 04:09:41;;;;;;;1.07;1.07;;;;;9.90;95566.00;;;;5053595;28;20688;-56
2023/05/15 04:12:10;;;;;;;0.50;0.50;;;;;10.00;95568.00;;;;5053537;28;20200;-56
2023/05/15 04:14:37;;;;;;;1.30;1.30;;;;;10.00;95573.00;;;;5053153;28;20223;-54
2023/05/15 04:17:05;;;;;;;0.60;0.60;;;;;10.00;95566.00;;;;5053906;28;20188;-55
2023/05/15 04:19:32;;;;;;;0.90;0.90;;;;;10.10;95567.00;;;;5053490;28;20725;-55
2023/05/15 04:22:00;;;;;;;0.80;0.80;;;;;9.90;95565.00;;;;5053209;28;20191;-55
2023/05/15 04:24:27;;;;;;;1.00;1.00;;;;;10.00;95568.00;;;;5052966;28;20219;-55
2023/05/15 04:26:54;;;;;;;1.00;1.00;;;;;10.00;95563.00;;;;5053360;28;20196;-55
2023/05/15 04:29:23;;;;;;;1.17;1.17;;;;;9.90;95557.00;;;;5053214;28;20541;-56
2023/05/15 04:31:50;;;;;;;0.87;0.87;;;;;9.90;95558.00;;;;5053032;28;20199;-56
2023/05/15 04:34:18;;;;;;;0.80;0.80;;;;;9.80;95565.00;;;;5053128;28;20231;-56
2023/05/15 04:36:45;;;;;;;1.17;1.17;;;;;9.90;95560.00;;;;5053251;28;20724;-56
2023/05/15 04:39:13;;;;;;;1.23;1.23;;;;;10.10;95557.00;;;;5052977;28;20196;-56
2023/05/15 04:41:40;;;;;;;0.83;0.83;;;;;10.10;95550.00;;;;5053391;28;20196;-56
2023/05/15 04:44:08;;;;;;;1.37;1.37;;;;;10.10;95559.00;;;;5053470;28;20196;-55
2023/05/15 04:46:36;;;;;;;0.90;0.90;;;;;10.10;95565.00;;;;5052844;28;20192;-55
2023/05/15 04:49:05;;;;;;;4.73;1.47;;;;;10.20;95562.00;;;;5052763;28;20246;-55
2023/05/15 04:51:32;;;;;;;0.93;0.93;;;;;10.30;95567.00;;;;5053112;28;20553;-56
2023/05/15 04:54:00;;;;;;;1.07;0.97;;;;;10.40;95564.00;;;;5053228;28;20223;-56
2023/05/15 04:56:27;;;;;;;0.90;0.90;;;;;10.50;95568.00;;;;5053404;28;20192;-55
2023/05/15 04:58:55;;;;;;;1.00;1.00;;;;;10.60;95566.00;;;;5053015;28;20188;-55
2023/05/15 05:01:22;;;;;;;0.80;0.80;;;;;10.30;95571.00;;;;5052746;28;20215;-55
2023/05/15 05:03:51;;;;;;;0.60;0.60;;;;;10.30;95565.00;;;;5053370;28;20188;-55
2023/05/15 05:06:18;;;;;;;0.80;0.80;;;;;10.50;95567.00;;;;5052683;28;20219;-55
2023/05/15 05:08:46;;;;;;;0.73;0.73;;;;;10.60;95566.00;;;;5052771;28;20576;-56
2023/05/15 05:11:13;;;;;;;0.60;0.60;;;;;10.60;95568.00;;;;5034824;28;20193;-56
2023/05/15 05:13:41;;;;;;;50.17;28.03;;;;;10.80;95568.00;;;;5053117;28;20223;-56
2023/05/15 05:16:08;;;;;;;15.43;13.93;;;;;10.80;95567.00;;;;5052543;28;20208;-55
2023/05/15 05:18:36;;;;;;;2.80;2.60;;;;;10.90;95580.00;;;;5052625;28;20275;-55
2023/05/15 05:21:05;;;;;;;1.40;1.40;;;;;10.90;95575.00;;;;5052924;28;20207;-56
2023/05/15 05:23:32;;;;;;;1.00;1.00;;;;;10.90;95576.00;;;;5052621;28;20204;-55
2023/05/15 05:26:00;;;;;;;1.53;1.43;;;;;11.00;95567.00;;;;5052460;28;20211;-56
2023/05/15 05:28:28;;;;;;;0.73;0.73;;;;;11.00;95576.00;;;;5052573;28;20196;-56
2023/05/15 05:30:55;;;;;;;0.80;0.80;;;;;11.00;95579.00;;;;5052551;28;20246;-55
2023/05/15 05:33:23;;;;;;;1.17;1.17;;;;;11.20;95583.00;;;;5052456;28;20223;-56
2023/05/15 05:35:50;;;;;;;1.00;0.93;;;;;11.10;95580.00;;;;5052717;28;20567;-56
2023/05/15 05:38:19;;;;;;;0.90;0.90;;;;;11.10;95582.00;;;;5052824;28;20538;-58
2023/05/15 05:40:46;;;;;;;0.73;0.73;;;;;11.20;95581.00;;;;5036053;28;20196;-56
2023/05/15 05:43:14;;;;;;;1.23;1.13;;;;;11.30;95578.00;;;;5056269;28;20568;-56
2023/05/15 05:45:41;;;;;;;1.10;1.10;;;;;11.40;95579.00;;;;5055906;28;20216;-56
2023/05/15 05:48:09;;;;;;;0.80;0.80;;;;;11.30;95577.00;;;;5055979;28;20659;-56
2023/05/15 05:50:36;;;;;;;0.60;0.60;;;;;11.30;95577.00;;;;5056113;28;20210;-56
2023/05/15 05:53:03;;;;;;;1.00;1.00;;;;;11.40;95574.00;;;;5055822;28;20188;-56
2023/05/15 05:55:32;;;;;;;0.80;0.80;;;;;11.50;95578.00;;;;5055910;28;20330;-56
2023/05/15 05:58:00;;;;;;;0.97;0.97;;;;;11.60;95576.00;;;;5056041;28;20234;-56
2023/05/15 06:00:27;;;;;;;1.17;1.17;;;;;11.80;95579.00;;;;5055723;28;20651;-56
2023/05/15 06:02:57;;;;;;;6.13;4.20;;;;;11.90;95567.00;;;;5054762;28;20196;-54
2023/05/15 06:05:24;;;;;;;2.13;1.97;;;;;12.00;95569.00;;;;5049394;28;20224;-57
2023/05/15 06:07:52;;;;;;;0.90;0.90;;;;;12.10;95572.00;;;;5052776;28;20254;-57
2023/05/15 06:10:20;;;;;;;2.10;1.10;;;;;12.30;95568.00;;;;5053535;28;20667;-57
2023/05/15 06:12:49;;;;;;;2.13;2.00;;;;;12.40;95571.00;;;;5053445;28;20675;-57
2023/05/15 06:15:17;;;;;;;2.67;1.70;;;;;12.50;95577.00;;;;5053154;28;20270;-54
2023/05/15 06:17:44;;;;;;;1.70;1.60;;;;;12.60;95582.00;;;;5053599;28;20204;-55
2023/05/15 06:20:13;;;;;;;0.90;0.90;;;;;12.80;95579.00;;;;5052992;28;20200;-55
2023/05/15 06:22:40;;;;;;;1.63;1.53;;;;;12.80;95581.00;;;;5050494;28;20690;-55
2023/05/15 06:25:12;;;;;;;2.03;1.47;;;;;13.10;95572.00;;;;5053222;28;20215;-55
2023/05/15 06:27:40;;;;;;;0.93;0.93;;;;;13.20;95583.00;;;;5053095;28;20188;-55
2023/05/15 06:30:10;;;;;;;1.27;1.27;;;;;13.10;95581.00;;;;5053724;28;20555;-55
2023/05/15 06:32:37;;;;;;;1.00;1.00;;;;;13.10;95569.00;;;;5052672;28;20199;-55
2023/05/15 06:35:08;;;;;;;1.47;1.37;;;;;13.10;95586.00;;;;5053118;28;20220;-55
2023/05/15 06:37:37;;;;;;;0.77;0.77;;;;;13.20;95579.00;;;;5052970;28;20196;-56
2023/05/15 06:40:05;;;;;;;0.90;0.90;;;;;13.10;95578.00;;;;5052874;28;20200;-56
2023/05/15 06:42:33;;;;;;;0.97;0.97;;;;;12.90;95585.00;;;;5052932;28;20204;-56
2023/05/15 06:45:00;;;;;;;0.93;0.93;;;;;13.00;95580.00;;;;5052689;28;20219;-56
2023/05/15 06:47:29;;;;;;;1.27;1.23;;;;;13.20;95582.00;;;;5052754;28;20196;-54
2023/05/15 06:49:56;;;;;;;0.87;0.87;;;;;13.30;95582.00;;;;5052713;28;20226;-56
2023/05/15 06:52:24;;;;;;;1.00;1.00;;;;;13.30;95579.00;;;;5050747;28;20287;-56
2023/05/15 06:54:51;;;;;;;1.27;0.93;;;;;13.50;95588.00;;;;5052356;28;20231;-53
2023/05/15 06:57:20;;;;;;;0.93;0.93;;;;;13.50;95587.00;;;;5034572;28;20697;-54
2023/05/15 06:59:47;;;;;;;1.03;0.93;;;;;13.70;95588.00;;;;5052461;28;20196;-55
2023/05/15 07:02:14;;;;;;;1.27;1.17;;;;;13.90;95584.00;;;;5034996;28;20196;-55
2023/05/15 07:04:43;;;;;;;1.07;1.07;;;;;14.00;95584.00;;;;5051991;28;20215;-54
2023/05/15 07:07:11;;;;;;;0.90;0.90;;;;;14.00;95582.00;;;;5052676;28;20200;-55
2023/05/15 07:09:38;;;;;;;1.17;1.00;;;;;14.20;95577.00;;;;5052361;28;20199;-55
2023/05/15 07:12:06;;;;;;;0.97;0.97;;;;;14.30;95585.00;;;;5052179;28;20200;-55
2023/05/15 07:14:34;;;;;;;0.67;0.67;;;;;14.40;95581.00;;;;5052142;28;20671;-55
2023/05/15 07:17:01;;;;;;;1.13;1.13;;;;;14.40;95588.00;;;;5052123;28;20275;-55
2023/05/15 07:19:29;;;;;;;0.97;0.97;;;;;14.50;95579.00;;;;5051174;28;20215;-55
2023/05/15 07:21:57;;;;;;;1.27;0.80;;;;;14.70;95574.00;;;;5050640;28;20216;-55
2023/05/15 07:24:25;;;;;;;1.20;1.20;;;;;14.80;95572.00;;;;5051980;28;20217;-54
2023/05/15 07:26:54;;;;;;;0.80;0.80;;;;;14.90;95578.00;;;;5051978;28;20203;-56
2023/05/15 07:29:22;;;;;;;1.00;1.00;;;;;15.00;95579.00;;;;5051630;28;20207;-55
2023/05/15 07:31:49;;;;;;;1.43;1.33;;;;;15.10;95584.00;;;;5052170;28;20203;-55
2023/05/15 07:34:17;;;;;;;1.10;1.10;;;;;15.20;95593.00;;;;5051295;28;20342;-55
2023/05/15 07:36:44;;;;;;;1.17;1.13;;;;;15.20;95584.00;;;;5052172;28;20188;-55
2023/05/15 07:39:13;;;;;;;0.50;0.50;;;;;15.40;95591.00;;;;5051789;28;20196;-55
2023/05/15 07:41:40;;;;;;;1.17;1.17;;;;;15.20;95583.00;;;;5051551;28;20207;-55
2023/05/15 07:44:08;;;;;;;0.63;0.63;;;;;15.20;95580.00;;;;5051600;28;20196;-55
2023/05/15 07:46:37;;;;;;;0.87;0.87;;;;;15.50;95585.00;;;;5051768;28;20270;-55
2023/05/15 07:49:05;;;;;;;0.87;0.87;;;;;15.60;95578.00;;;;5047129;28;20200;-55
2023/05/15 07:51:32;;;;;;;0.90;0.90;;;;;15.90;95570.00;;;;5048537;28;20200;-55
2023/05/15 07:53:59;;;;;;;0.53;0.53;;;;;15.90;95577.00;;;;5051761;28;20687;-55
2023/05/15 07:56:28;;;;;;;1.00;1.00;;;;;16.10;95574.00;;;;5050332;28;20285;-55
2023/05/15 07:58:56;;;;;;;1.30;1.20;;;;;16.10;95569.00;;;;5051601;28;20214;-55
2023/05/15 08:01:23;;;;;;;0.80;0.80;;;;;16.30;95570.00;;;;5050292;28;20199;-55
2023/05/15 08:03:51;;;;;;;0.70;0.70;;;;;16.30;95574.00;;;;5050396;28;20200;-55
2023/05/15 08:06:18;;;;;;;1.57;1.37;;;;;16.20;95570.00;;;;5065420;22;20243;-57
2023/05/15 08:08:46;;;;;;;0.80;0.80;;;;;16.40;95567.00;;;;5051399;28;20671;-57
2023/05/15 08:11:13;;;;;;;0.83;0.83;;;;;16.60;95580.00;;;;5051310;28;20203;-57
2023/05/15 08:13:42;;;;;;;1.13;1.13;;;;;16.60;95573.00;;;;5051064;28;20274;-57
2023/05/15 08:16:09;;;;;;;1.00;1.00;;;;;16.90;95579.00;;;;5051171;28;20220;-56
2023/05/15 08:18:37;;;;;;;0.70;0.70;;;;;16.30;95580.00;;;;5043719;28;20214;-57
2023/05/15 08:21:04;;;;;;;0.90;0.90;;;;;16.50;95570.00;;;;5031292;28;20204;-57
2023/05/15 08:23:32;;;;;;;0.80;0.80;;;;;16.80;95565.00;;;;5031047;28;20254;-56
2023/05/15 08:25:59;;;;;;;0.90;0.90;;;;;16.90;95581.00;;;;5031106;28;20213;-57
2023/05/15 08:28:26;;;;;;;1.07;1.00;;;;;16.70;95566.00;;;;5031704;28;20280;-58
2023/05/15 08:30:55;;;;;;;1.03;1.03;;;;;17.00;95580.00;;;;5009345;28;20201;-58
2023/05/15 08:33:23;;;;;;;0.80;0.80;;;;;17.00;95572.00;;;;5031138;28;20201;-58
2023/05/15 08:35:50;;;;;;;1.00;1.00;;;;;17.40;95557.00;;;;5013148;28;20320;-55
2023/05/15 08:38:18;;;;;;;1.70;1.60;;;;;17.60;95565.00;;;;5031098;28;20275;-56
2023/05/15 08:40:50;;;;;;;0.70;0.70;;;;;17.80;95563.00;;;;5031082;28;20204;-57
2023/05/15 08:43:21;;;;;;;0.63;0.63;;;;;17.70;95565.00;;;;5031160;28;20196;-57
2023/05/15 08:45:49;;;;;;;1.10;1.03;;;;;17.80;95557.00;;;;5013105;28;20227;-56
2023/05/15 08:48:19;;;;;;;0.90;0.90;;;;;18.00;95552.00;;;;5031070;28;20243;-57
2023/05/15 08:50:48;;;;;;;1.03;1.03;;;;;18.20;95563.00;;;;5028636;28;20247;-57
2023/05/15 08:53:16;;;;;;;0.90;0.90;;;;;18.10;95560.00;;;;5030928;28;20204;-58
2023/05/15 08:55:44;;;;;;;1.33;1.23;;;;;18.00;95553.00;;;;5030657;28;20224;-58
2023/05/15 08:58:13;;;;;;;1.50;1.40;;;;;18.10;95551.00;;;;5031309;28;20208;-58
2023/05/15 09:00:40;;;;;;;15.10;1.17;;;;;17.70;95558.00;;;;5030550;28;20205;-58
2023/05/15 09:03:15;;;;;;;1.30;1.27;;;;;17.80;95550.00;;;;5030592;28;20200;-58
2023/05/15 09:05:44;;;;;;;0.87;0.87;;;;;18.00;95553.00;;;;5030555;28;20220;-56
2023/05/15 09:08:11;;;;;;;1.00;1.00;;;;;17.90;95546.00;;;;5031236;28;20671;-56
2023/05/15 09:10:40;;;;;;;1.27;1.23;;;;;17.80;95560.00;;;;5030364;28;20203;-58
2023/05/15 09:13:09;;;;;;;0.97;0.97;;;;;17.60;95554.00;;;;5031185;28;20189;-58
2023/05/15 09:15:37;;;;;;;1.53;1.33;;;;;17.60;95564.00;;;;5033296;28;20224;-57
2023/05/15 09:18:06;;;;;;;0.87;0.87;;;;;17.50;95558.00;;;;5034998;28;20679;-57
2023/05/15 09:20:35;;;;;;;0.93;0.93;;;;;17.60;95558.00;;;;5034053;28;20203;-58
2023/05/15 09:23:05;;;;;;;1.63;1.53;;;;;17.60;95557.00;;;;5034690;28;20204;-58
2023/05/15 09:25:34;;;;;;;1.47;1.37;;;;;17.60;95557.00;;;;5030429;28;20676;-57
2023/05/15 09:28:01;;;;;;;1.27;1.20;;;;;17.60;95553.00;;;;5016699;28;20745;-58
2023/05/15 09:30:30;;;;;;;1.53;1.43;;;;;17.70;95544.00;;;;5034309;28;20196;-58
2023/05/15 09:32:59;;;;;;;1.30;1.30;;;;;18.00;95537.00;;;;5034262;28;20204;-58
2023/05/15 09:35:34;;;;;;;1.07;1.07;;;;;18.20;95543.00;;;;5034363;28;20629;-57
2023/05/15 09:38:04;;;;;;;1.10;1.00;;;;;18.20;95554.00;;;;5034566;28;20211;-57
2023/05/15 09:40:34;;;;;;;1.33;1.33;;;;;18.20;95548.00;;;;5033956;28;20224;-57
2023/05/15 09:43:01;;;;;;;1.07;1.07;;;;;18.40;95544.00;;;;5034116;28;20201;-57
2023/05/15 09:45:30;;;;;;;1.43;1.33;;;;;18.40;95552.00;;;;5019227;28;20226;-58
2023/05/15 09:47:59;;;;;;;11.97;2.27;;;;;18.30;95553.00;;;;5053897;28;20223;-57
2023/05/15 09:50:34;;;;;;;1.20;1.20;;;;;17.90;95554.00;;;;5053847;28;20200;-58
2023/05/15 09:53:02;;;;;;;1.13;1.13;;;;;17.80;95551.00;;;;5053866;28;20187;-57
2023/05/15 09:55:32;;;;;;;1.70;1.60;;;;;17.70;95547.00;;;;5053911;28;20277;-57
2023/05/15 09:58:07;;;;;;;3.47;2.63;;;;;17.80;95554.00;;;;5029325;28;20255;-57
2023/05/15 10:00:35;;;;;;;1.30;1.27;;;;;17.80;95541.00;;;;5033785;28;20196;-60
2023/05/15 10:03:04;;;;;;;0.70;0.70;;;;;17.90;95544.00;;;;5033394;28;20204;-57
2023/05/15 10:05:32;;;;;;;0.90;0.90;;;;;18.30;95545.00;;;;5033837;28;20221;-57
2023/05/15 10:08:00;;;;;;;1.03;1.03;;;;;18.10;95541.00;;;;5033577;28;20197;-57
2023/05/15 10:10:30;;;;;;;1.17;1.17;;;;;17.40;95538.00;;;;5033498;28;20201;-56
2023/05/15 10:13:02;;;;;;;4.53;2.90;;;;;17.80;95526.00;;;;5031878;28;20189;-58
2023/05/15 10:15:30;;;;;;;1.00;1.00;;;;;18.50;95523.00;;;;5033471;28;20620;-56
2023/05/15 10:17:58;;;;;;;0.80;0.80;;;;;18.60;95521.00;;;;5015443;28;20212;-56
2023/05/15 10:20:26;;;;;;;0.70;0.70;;;;;18.90;95516.00;;;;5033461;28;20205;-56
2023/05/15 10:22:55;;;;;;;1.07;0.93;;;;;19.50;95523.00;;;;5033359;28;20208;-57
2023/05/15 10:25:31;;;;;;;2.17;1.07;;;;;19.40;95520.00;;;;5015240;28;20220;-59
2023/05/15 10:28:00;;;;;;;1.70;1.60;;;;;19.40;95514.00;;;;5032507;28;20204;-57
2023/05/15 10:30:29;;;;;;;3.97;1.27;;;;;19.40;95528.00;;;;5029534;28;20259;-56
2023/05/15 10:32:57;;;;;;;1.47;1.37;;;;;19.00;95520.00;;;;5033137;28;20200;-57
2023/05/15 10:35:26;;;;;;;1.20;1.20;;;;;18.80;95513.00;;;;5033585;28;20225;-59
2023/05/15 10:37:54;;;;;;;1.00;1.00;;;;;18.90;95510.00;;;;5015430;28;20211;-58
2023/05/15 10:40:23;;;;;;;1.40;0.97;;;;;18.90;95520.00;;;;5032430;28;20228;-58
2023/05/15 10:42:51;;;;;;;2.77;0.97;;;;;19.00;95507.00;;;;5032949;28;20562;-57
2023/05/15 10:45:21;;;;;;;1.20;0.83;;;;;19.00;95490.00;;;;5032776;28;20748;-58
2023/05/15 10:47:48;;;;;;;0.60;0.60;;;;;18.80;95497.00;;;;5014629;28;20197;-57
2023/05/15 10:50:16;;;;;;;1.27;1.17;;;;;18.50;95525.00;;;;5033920;28;20192;-58
2023/05/15 10:52:43;;;;;;;0.90;0.90;;;;;18.10;95514.00;;;;5036913;28;20201;-57
2023/05/15 10:55:16;;;;;;;0.90;0.90;;;;;18.10;95516.00;;;;5028870;28;20275;-58
2023/05/15 10:57:45;;;;;;;0.77;0.77;;;;;18.00;95505.00;;;;5032251;28;20211;-57
2023/05/15 11:00:30;;;;;;;1.07;1.07;;;;;18.70;95491.00;;;;5030958;28;20250;-58
2023/05/15 11:02:58;;;;;;;0.57;0.57;;;;;19.40;95487.00;;;;5032776;28;20279;-58
2023/05/15 11:05:26;;;;;;;0.70;0.70;;;;;19.80;95483.00;;;;5032705;28;20764;-58
2023/05/15 11:08:27;;;;;;;2.93;1.17;;;;;19.50;95492.00;;;;5032068;28;20201;-58
2023/05/15 11:10:55;;;;;;;0.90;0.90;;;;;20.20;95483.00;;;;5032822;28;20196;-58
2023/05/15 11:13:22;;;;;;;0.67;0.67;;;;;20.40;95487.00;;;;5032490;28;20193;-57
2023/05/15 11:15:51;;;;;;;0.83;0.83;;;;;20.40;95477.00;;;;5032916;28;20228;-57
2023/05/15 11:18:20;;;;;;;0.70;0.70;;;;;20.10;95475.00;;;;5031863;28;20280;-57
2023/05/15 11:21:09;;;;;;;0.50;0.50;;;;;19.90;95481.00;;;;5032847;28;20193;-58
2023/05/15 11:23:41;;;;;;;1.10;1.10;;;;;20.60;95476.00;;;;5032340;28;20185;-57
2023/05/15 11:26:09;;;;;;;0.50;0.50;;;;;21.10;95486.00;;;;5044766;28;21019;-58
2023/05/15 11:28:44;;;;;;;0.50;0.50;;;;;20.80;95500.00;;;;5051844;28;21282;-58
2023/05/15 11:31:14;;;;;;;1.03;1.03;;;;;20.30;95494.00;;;;5034490;28;20206;-58
2023/05/15 11:33:41;;;;;;;1.20;1.10;;;;;19.80;95494.00;;;;5051790;28;20200;-59
2023/05/15 11:36:10;;;;;;;0.90;0.90;;;;;19.60;95493.00;;;;5052182;28;20216;-58
2023/05/15 11:38:39;;;;;;;0.67;0.67;;;;;19.30;95485.00;;;;5032866;28;20205;-58
2023/05/15 11:41:20;;;;;;;1.43;1.33;;;;;19.30;95486.00;;;;5031757;28;20668;-58
2023/05/15 11:43:48;;;;;;;0.50;0.50;;;;;19.20;95470.00;;;;5032233;28;20188;-58
2023/05/15 11:46:17;;;;;;;1.30;1.23;;;;;19.80;95458.00;;;;5031701;28;20213;-59
2023/05/15 11:48:47;;;;;;;0.87;0.87;;;;;20.30;95453.00;;;;5032075;28;20200;-63
2023/05/15 11:51:18;;;;;;;0.50;0.50;;;;;20.30;95479.00;;;;5031883;28;20276;-58
2023/05/15 11:53:46;;;;;;;1.23;1.17;;;;;20.50;95447.00;;;;5031491;28;20197;-58
2023/05/15 11:56:18;;;;;;;0.70;0.70;;;;;21.00;95446.00;;;;5031523;28;20691;-57
2023/05/15 11:58:47;;;;;;;0.60;0.60;;;;;20.20;95451.00;;;;5031560;28;20249;-57
2023/05/15 12:01:16;;;;;;;1.00;1.00;;;;;20.80;95447.00;;;;5014208;28;20616;-58
2023/05/15 12:03:46;;;;;;;0.77;0.77;;;;;21.00;95442.00;;;;5031530;28;20196;-58
2023/05/15 12:06:13;;;;;;;0.87;0.87;;;;;21.90;95449.00;;;;5031309;28;20224;-59
2023/05/15 12:08:42;;;;;;;0.83;0.83;;;;;22.40;95483.00;;;;5031772;28;20308;-59
2023/05/15 12:11:10;;;;;;;0.60;0.60;;;;;22.00;95477.00;;;;5031412;28;20219;-58
2023/05/15 12:13:38;;;;;;;0.60;0.60;;;;;21.70;95468.00;;;;5031377;28;20197;-58
2023/05/15 12:16:05;;;;;;;0.70;0.70;;;;;21.10;95440.00;;;;5031193;28;20216;-58
2023/05/15 12:18:34;;;;;;;0.50;0.50;;;;;21.60;95444.00;;;;5031764;28;20205;-58
2023/05/15 12:21:04;;;;;;;0.63;0.63;;;;;21.90;95481.00;;;;5031623;28;20200;-58
2023/05/15 12:23:33;;;;;;;0.85;0.85;;;;;21.20;95480.00;;;;5031188;28;20617;-58
2023/05/15 12:26:02;;;;;;;0.57;0.57;;;;;20.90;95481.00;;;;5031116;28;20221;-59
2023/05/15 12:28:31;;;;;;;0.60;0.60;;;;;20.40;95484.00;;;;5031891;28;20562;-57